hwlogo.jpg (8581 bytes)
Home Your Weather Products Services Weather On Your Site Contact
HW Version Logo
Weather Info
Your Weather (Options)
Canadian Weather
International Weather
Enter your " Place, State", US Zip Code or ICAO:  
Forecast Information Radar Information
Fort Simpson, Northwest Territories, Canada  Lat: 61.75N, Lon: 121.23W
ICAO Used: CYFS
Current Conditions
Updated: 11:00 AM MST THU FEB 22 2018
Sun & Moon Information
Mostly Cloudy
Mostly Cloudy
Temp: -10°C
Humidity: 56%
Wind Speed: S 5 MPH
Barometer: 1014 mb
Dewpoint: -17°C
Heat Index: -10°C
Wind Chill: -14°C
Civil Twilight: 7:47 AM MST Moon Phase:
Waxing Gibbous Moon
Sunrise: 8:33 AM MST
Sunset: 6:04 PM MST
Civil Twilight: 6:49 PM MST
Forecast for Fort Simpson, NT:
(Forecast based on TAF for )
1142 AM MST THU FEB 22 2018
  
MORNING AFTERNOON EVENING OVERNIGHT
Partly
Cloudy
Partly
Cloudy
Partly
Cloudy
Partly
Cloudy
ZoneCast:
Dated: 1142 AM MST THU FEB 22 2018
Morning...Partly cloudy with winds from the south at 6 mph.

Afternoon...Partly cloudy with winds from the south at 6 mph.

Evening...Partly cloudy with winds from the south at 6 mph.

Overnight...Partly cloudy with winds from the south at 6 mph.

Original Encoded TAF:
Dated: 1142 AM MST THU FEB 22 2018
2018/02/22 18:42
TAF CYFS 221738Z 2218/2306 19005KT P6SM FEW070 
      RMK NXT FCST BY 230000Z